Terminal Aerodrome Forecast
Issued by NWS

Home | Current Version | Previous Version | Text Only | Print | Product List | Glossary On
Versions: 1 2 3 4 5 6 7 8 9 10 11 12 13 14 15 16 17 18 19 20 21 22 23 24 25
000
FTUS46 KMTR 070540
TAFSFO
TAF
KSFO 070540Z 0706/0812 26010KT P6SM SCT015 BKN250
      TEMPO 0706/0710 BKN012 OVC250
     FM071000 26008KT P6SM OVC010
     FM071800 28010KT P6SM FEW012 SCT250
     FM072200 27016G22KT P6SM FEW012 SCT250
     FM080400 27016KT P6SM SCT012 BKN250=

USA.gov is the U.S. government's official web portal to all federal, state and local government web resources and services.